sensor_id;sensor_type;location;lat;lon;timestamp;pressure;altitude;pressure_sealevel;temperature;humidity
51297;BME280;37380;45.186;9.792;2023-06-14T00:01:37;100517.47;;;21.41;100.00
51297;BME280;37380;45.186;9.792;2023-06-14T00:04:05;100483.13;;;21.22;100.00
51297;BME280;37380;45.186;9.792;2023-06-14T00:06:33;100417.31;;;20.75;100.00
51297;BME280;37380;45.186;9.792;2023-06-14T00:09:00;100438.16;;;21.07;100.00
51297;BME280;37380;45.186;9.792;2023-06-14T00:11:27;100444.41;;;21.05;100.00
51297;BME280;37380;45.186;9.792;2023-06-14T00:13:56;100473.38;;;21.23;100.00
51297;BME280;37380;45.186;9.792;2023-06-14T00:16:24;100474.38;;;21.14;100.00
51297;BME280;37380;45.186;9.792;2023-06-14T00:18:51;100463.66;;;21.23;100.00
51297;BME280;37380;45.186;9.792;2023-06-14T00:21:21;100424.13;;;20.97;100.00
51297;BME280;37380;45.186;9.792;2023-06-14T00:23:48;100477.78;;;21.25;100.00
51297;BME280;37380;45.186;9.792;2023-06-14T00:26:15;100475.28;;;21.12;100.00
51297;BME280;37380;45.186;9.792;2023-06-14T00:28:43;100456.88;;;20.96;100.00
51297;BME280;37380;45.186;9.792;2023-06-14T00:31:10;100418.91;;;20.88;100.00
51297;BME280;37380;45.186;9.792;2023-06-14T00:33:38;100451.53;;;20.99;100.00
51297;BME280;37380;45.186;9.792;2023-06-14T00:36:05;100432.13;;;20.93;100.00
51297;BME280;37380;45.186;9.792;2023-06-14T00:38:32;100497.16;;;21.37;100.00
51297;BME280;37380;45.186;9.792;2023-06-14T00:40:59;100494.63;;;21.23;100.00
51297;BME280;37380;45.186;9.792;2023-06-14T00:43:27;100437.59;;;20.79;100.00
51297;BME280;37380;45.186;9.792;2023-06-14T00:45:54;100431.56;;;20.65;100.00
51297;BME280;37380;45.186;9.792;2023-06-14T00:48:22;100474.47;;;21.07;100.00
51297;BME280;37380;45.186;9.792;2023-06-14T00:50:50;100431.50;;;20.72;100.00
51297;BME280;37380;45.186;9.792;2023-06-14T00:53:19;100484.03;;;21.20;100.00
51297;BME280;37380;45.186;9.792;2023-06-14T00:55:51;100397.16;;;20.55;100.00
51297;BME280;37380;45.186;9.792;2023-06-14T00:58:19;100468.31;;;21.03;100.00
51297;BME280;37380;45.186;9.792;2023-06-14T01:00:48;100467.28;;;21.16;100.00
51297;BME280;37380;45.186;9.792;2023-06-14T01:03:15;100432.28;;;20.79;100.00
51297;BME280;37380;45.186;9.792;2023-06-14T01:05:53;100349.09;;;20.01;100.00
51297;BME280;37380;45.186;9.792;2023-06-14T01:08:31;100465.88;;;20.85;100.00
51297;BME280;37380;45.186;9.792;2023-06-14T01:11:11;100403.50;;;20.42;100.00
51297;BME280;37380;45.186;9.792;2023-06-14T01:13:42;100478.97;;;21.01;100.00
51297;BME280;37380;45.186;9.792;2023-06-14T01:16:10;100413.88;;;20.67;100.00
51297;BME280;37380;45.186;9.792;2023-06-14T01:18:37;100416.47;;;20.71;100.00
51297;BME280;37380;45.186;9.792;2023-06-14T01:21:05;100461.47;;;20.82;100.00
51297;BME280;37380;45.186;9.792;2023-06-14T01:23:32;100412.31;;;20.41;100.00
51297;BME280;37380;45.186;9.792;2023-06-14T01:26:00;100481.88;;;20.78;100.00
51297;BME280;37380;45.186;9.792;2023-06-14T01:28:33;100447.59;;;20.55;100.00
51297;BME280;37380;45.186;9.792;2023-06-14T01:31:02;100462.63;;;20.58;100.00
51297;BME280;37380;45.186;9.792;2023-06-14T01:33:33;100488.09;;;20.76;100.00
51297;BME280;37380;45.186;9.792;2023-06-14T01:36:02;100479.25;;;20.77;100.00
51297;BME280;37380;45.186;9.792;2023-06-14T01:38:30;100438.59;;;20.72;100.00
51297;BME280;37380;45.186;9.792;2023-06-14T01:40:59;100421.16;;;20.43;100.00
51297;BME280;37380;45.186;9.792;2023-06-14T01:43:30;100489.03;;;20.72;100.00
51297;BME280;37380;45.186;9.792;2023-06-14T01:45:58;100449.22;;;20.72;100.00
51297;BME280;37380;45.186;9.792;2023-06-14T01:48:26;100441.09;;;20.86;100.00
51297;BME280;37380;45.186;9.792;2023-06-14T01:50:53;100406.00;;;20.57;100.00
51297;BME280;37380;45.186;9.792;2023-06-14T01:53:21;100478.88;;;21.09;100.00
51297;BME280;37380;45.186;9.792;2023-06-14T01:55:48;100431.38;;;20.83;100.00
51297;BME280;37380;45.186;9.792;2023-06-14T01:58:16;100472.63;;;21.13;100.00
51297;BME280;37380;45.186;9.792;2023-06-14T02:00:43;100393.66;;;20.52;100.00
51297;BME280;37380;45.186;9.792;2023-06-14T02:03:11;100467.72;;;20.78;100.00
51297;BME280;37380;45.186;9.792;2023-06-14T02:05:39;100404.50;;;20.29;100.00
51297;BME280;37380;45.186;9.792;2023-06-14T02:08:06;100449.59;;;20.30;100.00
51297;BME280;37380;45.186;9.792;2023-06-14T02:10:34;100428.31;;;20.35;100.00
51297;BME280;37380;45.186;9.792;2023-06-14T02:13:02;100401.25;;;19.99;100.00
51297;BME280;37380;45.186;9.792;2023-06-14T02:15:29;100439.09;;;20.15;100.00
51297;BME280;37380;45.186;9.792;2023-06-14T02:18:02;100406.66;;;19.87;100.00
51297;BME280;37380;45.186;9.792;2023-06-14T02:20:32;100444.44;;;20.13;100.00
51297;BME280;37380;45.186;9.792;2023-06-14T02:23:00;100448.84;;;20.15;100.00
51297;BME280;37380;45.186;9.792;2023-06-14T02:25:30;100430.44;;;19.95;100.00
51297;BME280;37380;45.186;9.792;2023-06-14T02:27:58;100384.69;;;19.73;100.00
51297;BME280;37380;45.186;9.792;2023-06-14T02:30:25;100359.16;;;19.55;100.00
51297;BME280;37380;45.186;9.792;2023-06-14T02:32:55;100377.69;;;19.56;100.00
51297;BME280;37380;45.186;9.792;2023-06-14T02:35:23;100346.00;;;19.44;100.00
51297;BME280;37380;45.186;9.792;2023-06-14T02:37:55;100379.22;;;19.91;100.00
51297;BME280;37380;45.186;9.792;2023-06-14T02:40:23;100427.63;;;20.16;100.00
51297;BME280;37380;45.186;9.792;2023-06-14T02:42:50;100418.81;;;20.11;100.00
51297;BME280;37380;45.186;9.792;2023-06-14T02:45:18;100412.84;;;19.83;100.00
51297;BME280;37380;45.186;9.792;2023-06-14T02:47:46;100445.34;;;20.11;100.00
51297;BME280;37380;45.186;9.792;2023-06-14T02:50:14;100458.53;;;20.16;100.00
51297;BME280;37380;45.186;9.792;2023-06-14T02:52:41;100394.28;;;19.86;100.00
51297;BME280;37380;45.186;9.792;2023-06-14T02:55:08;100435.63;;;20.08;100.00
51297;BME280;37380;45.186;9.792;2023-06-14T02:57:37;100458.56;;;20.12;100.00
51297;BME280;37380;45.186;9.792;2023-06-14T03:00:06;100394.41;;;19.71;100.00
51297;BME280;37380;45.186;9.792;2023-06-14T03:02:38;100442.81;;;19.99;100.00
51297;BME280;37380;45.186;9.792;2023-06-14T03:05:06;100432.53;;;19.47;100.00
51297;BME280;37380;45.186;9.792;2023-06-14T03:07:35;100460.69;;;19.64;100.00
51297;BME280;37380;45.186;9.792;2023-06-14T03:10:03;100413.25;;;19.18;100.00
51297;BME280;37380;45.186;9.792;2023-06-14T03:12:32;100408.03;;;19.02;100.00
51297;BME280;37380;45.186;9.792;2023-06-14T03:14:59;100399.25;;;18.95;100.00
51297;BME280;37380;45.186;9.792;2023-06-14T03:17:35;100394.88;;;18.91;100.00
51297;BME280;37380;45.186;9.792;2023-06-14T03:20:07;100417.69;;;19.10;100.00
51297;BME280;37380;45.186;9.792;2023-06-14T03:22:35;100378.03;;;19.03;100.00
51297;BME280;37380;45.186;9.792;2023-06-14T03:25:02;100400.03;;;19.20;100.00
51297;BME280;37380;45.186;9.792;2023-06-14T03:27:34;100450.22;;;19.46;100.00
51297;BME280;37380;45.186;9.792;2023-06-14T03:30:02;100377.16;;;19.04;100.00
51297;BME280;37380;45.186;9.792;2023-06-14T03:32:31;100367.53;;;18.86;100.00
51297;BME280;37380;45.186;9.792;2023-06-14T03:35:00;100436.22;;;19.15;100.00
51297;BME280;37380;45.186;9.792;2023-06-14T03:37:27;100385.16;;;18.87;100.00
51297;BME280;37380;45.186;9.792;2023-06-14T03:39:55;100387.78;;;18.94;100.00
51297;BME280;37380;45.186;9.792;2023-06-14T03:42:24;100399.22;;;19.01;100.00
51297;BME280;37380;45.186;9.792;2023-06-14T03:44:53;100410.66;;;19.05;100.00
51297;BME280;37380;45.186;9.792;2023-06-14T03:47:23;100422.13;;;19.11;100.00
51297;BME280;37380;45.186;9.792;2023-06-14T03:49:51;100460.81;;;19.37;100.00
51297;BME280;37380;45.186;9.792;2023-06-14T03:52:18;100424.75;;;19.16;100.00
51297;BME280;37380;45.186;9.792;2023-06-14T03:54:47;100434.38;;;19.31;100.00
51297;BME280;37380;45.186;9.792;2023-06-14T03:57:19;100456.28;;;19.65;100.00
51297;BME280;37380;45.186;9.792;2023-06-14T03:59:48;100407.00;;;19.32;100.00
51297;BME280;37380;45.186;9.792;2023-06-14T04:02:16;100396.38;;;19.33;100.00
51297;BME280;37380;45.186;9.792;2023-06-14T04:04:45;100424.63;;;19.40;100.00
51297;BME280;37380;45.186;9.792;2023-06-14T04:07:12;100393.81;;;19.19;100.00
51297;BME280;37380;45.186;9.792;2023-06-14T04:09:40;100431.63;;;19.48;100.00
51297;BME280;37380;45.186;9.792;2023-06-14T04:12:08;100391.19;;;19.16;100.00
51297;BME280;37380;45.186;9.792;2023-06-14T04:14:41;100465.94;;;19.74;100.00
51297;BME280;37380;45.186;9.792;2023-06-14T04:17:10;100414.81;;;19.53;100.00
51297;BME280;37380;45.186;9.792;2023-06-14T04:19:38;100387.44;;;19.51;100.00
51297;BME280;37380;45.186;9.792;2023-06-14T04:22:05;100476.31;;;20.07;100.00
51297;BME280;37380;45.186;9.792;2023-06-14T04:24:34;100436.47;;;20.12;100.00
51297;BME280;37380;45.186;9.792;2023-06-14T04:27:02;100446.06;;;20.27;100.00
51297;BME280;37380;45.186;9.792;2023-06-14T04:29:31;100476.94;;;20.37;100.00
51297;BME280;37380;45.186;9.792;2023-06-14T04:32:03;100476.84;;;20.49;100.00
51297;BME280;37380;45.186;9.792;2023-06-14T04:34:31;100462.78;;;20.38;100.00
51297;BME280;37380;45.186;9.792;2023-06-14T04:37:00;100410.03;;;20.06;100.00
51297;BME280;37380;45.186;9.792;2023-06-14T04:39:34;100478.66;;;20.43;100.00
51297;BME280;37380;45.186;9.792;2023-06-14T04:42:02;100435.25;;;20.54;100.00
51297;BME280;37380;45.186;9.792;2023-06-14T04:44:31;100374.50;;;20.21;100.00
51297;BME280;37380;45.186;9.792;2023-06-14T04:47:01;100448.72;;;20.27;100.00
51297;BME280;37380;45.186;9.792;2023-06-14T04:49:29;100402.69;;;20.32;100.00
51297;BME280;37380;45.186;9.792;2023-06-14T04:51:57;100411.09;;;19.83;100.00
51297;BME280;37380;45.186;9.792;2023-06-14T04:54:31;100410.34;;;19.60;100.00
51297;BME280;37380;45.186;9.792;2023-06-14T04:57:02;100480.03;;;19.80;100.00
51297;BME280;37380;45.186;9.792;2023-06-14T04:59:30;100464.06;;;19.91;100.00
51297;BME280;37380;45.186;9.792;2023-06-14T05:02:00;100411.28;;;19.51;100.00
51297;BME280;37380;45.186;9.792;2023-06-14T05:04:27;100481.22;;;20.53;100.00
51297;BME280;37380;45.186;9.792;2023-06-14T05:06:56;100471.66;;;20.37;100.00
51297;BME280;37380;45.186;9.792;2023-06-14T05:09:24;100481.09;;;20.69;100.00
51297;BME280;37380;45.186;9.792;2023-06-14T05:11:51;100383.69;;;19.84;100.00
51297;BME280;37380;45.186;9.792;2023-06-14T05:14:20;100430.91;;;20.41;100.00
51297;BME280;37380;45.186;9.792;2023-06-14T05:16:50;100396.19;;;19.64;100.00
51297;BME280;37380;45.186;9.792;2023-06-14T05:19:17;100398.06;;;19.48;100.00
51297;BME280;37380;45.186;9.792;2023-06-14T05:21:45;100399.38;;;20.10;100.00
51297;BME280;37380;45.186;9.792;2023-06-14T05:24:13;100419.47;;;20.33;100.00
51297;BME280;37380;45.186;9.792;2023-06-14T05:26:40;100500.03;;;21.17;100.00
51297;BME280;37380;45.186;9.792;2023-06-14T05:29:07;100430.81;;;20.50;100.00
51297;BME280;37380;45.186;9.792;2023-06-14T05:31:35;100486.25;;;20.84;100.00
51297;BME280;37380;45.186;9.792;2023-06-14T05:34:02;100469.09;;;21.13;100.00
51297;BME280;37380;45.186;9.792;2023-06-14T05:36:29;100493.44;;;21.48;100.00
51297;BME280;37380;45.186;9.792;2023-06-14T05:38:56;100490.56;;;21.64;100.00
51297;BME280;37380;45.186;9.792;2023-06-14T05:41:27;100471.34;;;21.45;100.00
51297;BME280;37380;45.186;9.792;2023-06-14T05:43:55;100469.88;;;21.21;100.00
51297;BME280;37380;45.186;9.792;2023-06-14T05:46:24;100426.66;;;21.07;100.00
51297;BME280;37380;45.186;9.792;2023-06-14T05:48:53;100504.69;;;21.69;100.00
51297;BME280;37380;45.186;9.792;2023-06-14T05:51:22;100464.69;;;21.09;100.00
51297;BME280;37380;45.186;9.792;2023-06-14T05:53:52;100469.09;;;21.13;100.00
51297;BME280;37380;45.186;9.792;2023-06-14T05:56:19;100502.38;;;21.44;100.00
51297;BME280;37380;45.186;9.792;2023-06-14T05:58:47;100448.44;;;21.33;100.00
51297;BME280;37380;45.186;9.792;2023-06-14T06:01:15;100423.22;;;20.97;100.00
51297;BME280;37380;45.186;9.792;2023-06-14T06:03:42;100490.97;;;21.32;100.00
51297;BME280;37380;45.186;9.792;2023-06-14T06:06:13;100518.06;;;21.63;100.00
51297;BME280;37380;45.186;9.792;2023-06-14T06:08:41;100463.75;;;21.14;100.00
51297;BME280;37380;45.186;9.792;2023-06-14T06:11:08;100529.03;;;21.37;100.00
51297;BME280;37380;45.186;9.792;2023-06-14T06:13:35;100456.88;;;20.98;100.00
51297;BME280;37380;45.186;9.792;2023-06-14T06:16:03;100463.47;;;21.34;100.00
51297;BME280;37380;45.186;9.792;2023-06-14T06:18:30;100523.34;;;21.67;100.00
51297;BME280;37380;45.186;9.792;2023-06-14T06:20:57;100481.16;;;21.40;100.00
51297;BME280;37380;45.186;9.792;2023-06-14T06:23:24;100538.69;;;21.47;100.00
51297;BME280;37380;45.186;9.792;2023-06-14T06:25:52;100541.91;;;21.69;100.00
51297;BME280;37380;45.186;9.792;2023-06-14T06:28:19;100523.16;;;21.80;100.00
51297;BME280;37380;45.186;9.792;2023-06-14T06:30:47;100518.84;;;21.69;100.00
51297;BME280;37380;45.186;9.792;2023-06-14T06:33:14;100478.06;;;21.02;100.00
51297;BME280;37380;45.186;9.792;2023-06-14T06:35:41;100483.88;;;21.34;100.00
51297;BME280;37380;45.186;9.792;2023-06-14T06:38:09;100537.28;;;21.85;100.00
51297;BME280;37380;45.186;9.792;2023-06-14T06:40:37;100535.53;;;21.82;100.00
51297;BME280;37380;45.186;9.792;2023-06-14T06:43:04;100541.63;;;21.90;100.00
51297;BME280;37380;45.186;9.792;2023-06-14T06:45:40;100482.63;;;21.62;100.00
51297;BME280;37380;45.186;9.792;2023-06-14T06:48:07;100523.13;;;21.81;100.00
51297;BME280;37380;45.186;9.792;2023-06-14T06:50:37;100550.41;;;21.96;100.00
51297;BME280;37380;45.186;9.792;2023-06-14T06:53:05;100543.38;;;21.90;100.00
51297;BME280;37380;45.186;9.792;2023-06-14T06:55:33;100482.69;;;21.58;100.00
51297;BME280;37380;45.186;9.792;2023-06-14T06:58:01;100551.91;;;22.15;100.00
51297;BME280;37380;45.186;9.792;2023-06-14T07:00:28;100506.09;;;21.93;100.00
51297;BME280;37380;45.186;9.792;2023-06-14T07:02:56;100464.59;;;21.81;100.00
51297;BME280;37380;45.186;9.792;2023-06-14T07:05:24;100526.16;;;22.19;100.00
51297;BME280;37380;45.186;9.792;2023-06-14T07:07:51;100551.13;;;22.64;100.00
51297;BME280;37380;45.186;9.792;2023-06-14T07:10:18;100546.06;;;22.49;100.00
51297;BME280;37380;45.186;9.792;2023-06-14T07:12:45;100545.84;;;22.61;100.00
51297;BME280;37380;45.186;9.792;2023-06-14T07:15:13;100515.97;;;21.88;100.00
51297;BME280;37380;45.186;9.792;2023-06-14T07:17:41;100531.63;;;22.05;100.00
51297;BME280;37380;45.186;9.792;2023-06-14T07:20:09;100546.13;;;22.46;100.00
51297;BME280;37380;45.186;9.792;2023-06-14T07:22:41;100538.31;;;22.35;100.00
51297;BME280;37380;45.186;9.792;2023-06-14T07:25:09;100539.13;;;22.38;100.00
51297;BME280;37380;45.186;9.792;2023-06-14T07:27:43;100520.00;;;22.12;100.00
51297;BME280;37380;45.186;9.792;2023-06-14T07:30:11;100547.19;;;22.34;100.00
51297;BME280;37380;45.186;9.792;2023-06-14T07:32:38;100493.34;;;22.15;100.00
51297;BME280;37380;45.186;9.792;2023-06-14T07:35:06;100535.31;;;21.99;100.00
51297;BME280;37380;45.186;9.792;2023-06-14T07:37:33;100583.53;;;22.36;100.00
51297;BME280;37380;45.186;9.792;2023-06-14T07:40:00;100588.28;;;22.13;100.00
51297;BME280;37380;45.186;9.792;2023-06-14T07:42:30;100487.31;;;21.43;100.00
51297;BME280;37380;45.186;9.792;2023-06-14T07:44:57;100526.38;;;21.38;100.00
51297;BME280;37380;45.186;9.792;2023-06-14T07:47:25;100537.72;;;21.53;100.00
51297;BME280;37380;45.186;9.792;2023-06-14T07:49:53;100524.72;;;21.25;100.00
51297;BME280;37380;45.186;9.792;2023-06-14T07:52:20;100585.50;;;21.57;100.00
51297;BME280;37380;45.186;9.792;2023-06-14T07:54:48;100559.19;;;21.31;100.00
51297;BME280;37380;45.186;9.792;2023-06-14T07:57:15;100586.63;;;21.36;100.00
51297;BME280;37380;45.186;9.792;2023-06-14T07:59:42;100575.41;;;21.10;100.00
51297;BME280;37380;45.186;9.792;2023-06-14T08:02:09;100522.41;;;20.97;100.00
51297;BME280;37380;45.186;9.792;2023-06-14T08:04:37;100575.09;;;21.36;100.00
51297;BME280;37380;45.186;9.792;2023-06-14T08:07:04;100558.53;;;21.11;100.00
51297;BME280;37380;45.186;9.792;2023-06-14T08:09:34;100479.00;;;20.98;100.00
51297;BME280;37380;45.186;9.792;2023-06-14T08:12:01;100586.72;;;21.27;100.00
51297;BME280;37380;45.186;9.792;2023-06-14T08:14:29;100525.19;;;20.82;100.00
51297;BME280;37380;45.186;9.792;2023-06-14T08:16:56;100543.88;;;20.73;100.00
51297;BME280;37380;45.186;9.792;2023-06-14T08:19:23;100510.44;;;20.53;100.00
51297;BME280;37380;45.186;9.792;2023-06-14T08:21:50;100597.78;;;20.84;100.00
51297;BME280;37380;45.186;9.792;2023-06-14T08:24:17;100566.16;;;20.50;100.00
51297;BME280;37380;45.186;9.792;2023-06-14T08:26:47;100507.31;;;20.02;100.00
51297;BME280;37380;45.186;9.792;2023-06-14T08:29:14;100519.66;;;20.05;100.00
51297;BME280;37380;45.186;9.792;2023-06-14T08:31:41;100596.16;;;20.65;100.00
51297;BME280;37380;45.186;9.792;2023-06-14T08:34:09;100608.56;;;20.66;100.00
51297;BME280;37380;45.186;9.792;2023-06-14T08:36:36;100629.00;;;20.54;100.00
51297;BME280;37380;45.186;9.792;2023-06-14T08:39:03;100599.66;;;20.70;100.00
51297;BME280;37380;45.186;9.792;2023-06-14T08:41:30;100602.34;;;20.67;100.00
51297;BME280;37380;45.186;9.792;2023-06-14T08:43:58;100586.50;;;20.57;100.00
51297;BME280;37380;45.186;9.792;2023-06-14T08:46:26;100642.97;;;20.78;100.00
51297;BME280;37380;45.186;9.792;2023-06-14T08:48:55;100545.22;;;20.17;100.00
51297;BME280;37380;45.186;9.792;2023-06-14T08:51:27;100646.50;;;20.80;100.00
51297;BME280;37380;45.186;9.792;2023-06-14T08:54:00;100560.03;;;20.44;100.00
51297;BME280;37380;45.186;9.792;2023-06-14T08:56:29;100647.22;;;21.00;100.00
51297;BME280;37380;45.186;9.792;2023-06-14T08:58:57;100580.16;;;20.74;100.00
51297;BME280;37380;45.186;9.792;2023-06-14T09:01:29;100650.47;;;21.30;100.00
51297;BME280;37380;45.186;9.792;2023-06-14T09:03:58;100622.31;;;21.12;100.00
51297;BME280;37380;45.186;9.792;2023-06-14T09:06:25;100570.28;;;20.90;100.00
51297;BME280;37380;45.186;9.792;2023-06-14T09:08:55;100637.09;;;21.38;100.00
51297;BME280;37380;45.186;9.792;2023-06-14T09:11:25;100636.97;;;21.53;100.00
51297;BME280;37380;45.186;9.792;2023-06-14T09:13:53;100638.47;;;21.73;100.00
51297;BME280;37380;45.186;9.792;2023-06-14T09:16:21;100643.03;;;21.63;100.00
51297;BME280;37380;45.186;9.792;2023-06-14T09:18:48;100621.16;;;21.39;100.00
51297;BME280;37380;45.186;9.792;2023-06-14T09:21:16;100599.28;;;21.13;100.00
51297;BME280;37380;45.186;9.792;2023-06-14T09:23:45;100651.78;;;21.74;100.00
51297;BME280;37380;45.186;9.792;2023-06-14T09:26:18;100659.38;;;22.03;100.00
51297;BME280;37380;45.186;9.792;2023-06-14T09:28:48;100575.56;;;21.73;100.00
51297;BME280;37380;45.186;9.792;2023-06-14T09:31:19;100655.69;;;22.13;100.00
51297;BME280;37380;45.186;9.792;2023-06-14T09:33:49;100651.66;;;21.83;100.00
51297;BME280;37380;45.186;9.792;2023-06-14T09:36:18;100654.16;;;21.97;100.00
51297;BME280;37380;45.186;9.792;2023-06-14T09:39:02;100611.00;;;21.72;100.00
51297;BME280;37380;45.186;9.792;2023-06-14T09:44:06;100661.69;;;22.32;100.00
51297;BME280;37380;45.186;9.792;2023-06-14T09:46:40;100649.72;;;22.59;100.00
51297;BME280;37380;45.186;9.792;2023-06-14T09:49:08;100664.47;;;22.83;100.00
51297;BME280;37380;45.186;9.792;2023-06-14T09:51:43;100664.69;;;22.68;100.00
51297;BME280;37380;45.186;9.792;2023-06-14T09:54:21;100635.34;;;22.71;100.00
51297;BME280;37380;45.186;9.792;2023-06-14T09:56:50;100646.69;;;22.82;100.00
51297;BME280;37380;45.186;9.792;2023-06-14T09:59:20;100654.84;;;23.27;100.00
51297;BME280;37380;45.186;9.792;2023-06-14T10:01:49;100615.44;;;22.95;100.00
51297;BME280;37380;45.186;9.792;2023-06-14T10:04:19;100594.94;;;22.99;100.00
51297;BME280;37380;45.186;9.792;2023-06-14T10:06:50;100659.84;;;22.95;100.00
51297;BME280;37380;45.186;9.792;2023-06-14T10:09:17;100550.59;;;22.42;100.00
51297;BME280;37380;45.186;9.792;2023-06-14T10:11:45;100611.13;;;22.87;100.00
51297;BME280;37380;45.186;9.792;2023-06-14T10:14:13;100562.06;;;22.49;100.00
51297;BME280;37380;45.186;9.792;2023-06-14T10:17:04;100633.03;;;23.52;100.00
51297;BME280;37380;45.186;9.792;2023-06-14T10:19:40;100651.06;;;23.38;100.00
51297;BME280;37380;45.186;9.792;2023-06-14T10:22:22;100643.44;;;23.64;100.00
51297;BME280;37380;45.186;9.792;2023-06-14T10:24:52;100644.66;;;23.93;100.00
51297;BME280;37380;45.186;9.792;2023-06-14T10:27:19;100600.16;;;23.50;100.00
51297;BME280;37380;45.186;9.792;2023-06-14T10:32:22;100636.63;;;24.72;100.00
51297;BME280;37380;45.186;9.792;2023-06-14T10:35:05;100585.69;;;24.44;100.00
51297;BME280;37380;45.186;9.792;2023-06-14T10:37:36;100610.91;;;24.70;100.00
51297;BME280;37380;45.186;9.792;2023-06-14T10:40:03;100633.03;;;25.43;100.00
51297;BME280;37380;45.186;9.792;2023-06-14T10:42:32;100616.00;;;24.79;100.00
51297;BME280;37380;45.186;9.792;2023-06-14T10:45:00;100630.31;;;24.37;100.00
51297;BME280;37380;45.186;9.792;2023-06-14T10:47:31;100630.91;;;24.11;100.00
51297;BME280;37380;45.186;9.792;2023-06-14T10:50:06;100624.09;;;24.76;100.00
51297;BME280;37380;45.186;9.792;2023-06-14T10:52:38;100613.41;;;24.76;100.00
51297;BME280;37380;45.186;9.792;2023-06-14T10:55:12;100616.56;;;25.26;100.00
51297;BME280;37380;45.186;9.792;2023-06-14T10:57:46;100613.84;;;24.93;100.00
51297;BME280;37380;45.186;9.792;2023-06-14T11:00:21;100606.47;;;25.01;100.00
51297;BME280;37380;45.186;9.792;2023-06-14T11:03:13;100615.34;;;25.03;91.24
51297;BME280;37380;45.186;9.792;2023-06-14T11:11:07;100609.91;;;26.31;86.67
51297;BME280;37380;45.186;9.792;2023-06-14T11:13:38;100610.59;;;26.10;76.00
51297;BME280;37380;45.186;9.792;2023-06-14T11:16:13;100611.41;;;25.82;80.13
51297;BME280;37380;45.186;9.792;2023-06-14T11:18:42;100574.22;;;25.42;80.58
51297;BME280;37380;45.186;9.792;2023-06-14T11:21:10;100613.19;;;25.83;79.68
51297;BME280;37380;45.186;9.792;2023-06-14T11:23:37;100559.56;;;25.55;83.70
51297;BME280;37380;45.186;9.792;2023-06-14T11:26:04;100542.38;;;25.00;85.50
51297;BME280;37380;45.186;9.792;2023-06-14T11:28:40;100553.66;;;25.11;87.62
51297;BME280;37380;45.186;9.792;2023-06-14T11:31:07;100584.72;;;24.82;89.53
51297;BME280;37380;45.186;9.792;2023-06-14T11:33:35;100587.75;;;25.67;91.03
51297;BME280;37380;45.186;9.792;2023-06-14T11:36:03;100595.00;;;26.23;82.37
51297;BME280;37380;45.186;9.792;2023-06-14T11:38:35;100586.53;;;26.36;83.04
51297;BME280;37380;45.186;9.792;2023-06-14T11:41:03;100589.50;;;25.99;86.90
51297;BME280;37380;45.186;9.792;2023-06-14T11:43:31;100574.97;;;25.77;87.11
51297;BME280;37380;45.186;9.792;2023-06-14T11:46:01;100581.28;;;26.33;85.28
51297;BME280;37380;45.186;9.792;2023-06-14T11:48:38;100567.38;;;26.50;80.03
51297;BME280;37380;45.186;9.792;2023-06-14T11:51:07;100567.47;;;26.17;83.19
51297;BME280;37380;45.186;9.792;2023-06-14T11:53:34;100575.41;;;26.50;84.39
51297;BME280;37380;45.186;9.792;2023-06-14T11:56:03;100568.88;;;26.59;81.13
51297;BME280;37380;45.186;9.792;2023-06-14T11:58:30;100565.44;;;26.54;82.41
51297;BME280;37380;45.186;9.792;2023-06-14T12:00:57;100539.59;;;26.25;80.66
51297;BME280;37380;45.186;9.792;2023-06-14T12:03:28;100571.44;;;26.62;84.23
51297;BME280;37380;45.186;9.792;2023-06-14T12:06:05;100548.75;;;26.44;83.24
51297;BME280;37380;45.186;9.792;2023-06-14T12:08:35;100576.91;;;26.59;86.81
51297;BME280;37380;45.186;9.792;2023-06-14T12:11:06;100564.94;;;27.21;80.92
51297;BME280;37380;45.186;9.792;2023-06-14T12:13:33;100558.50;;;27.00;79.35
51297;BME280;37380;45.186;9.792;2023-06-14T12:16:01;100537.06;;;26.73;85.22
51297;BME280;37380;45.186;9.792;2023-06-14T12:18:35;100553.72;;;26.83;85.22
51297;BME280;37380;45.186;9.792;2023-06-14T12:21:07;100556.81;;;28.16;73.51
51297;BME280;37380;45.186;9.792;2023-06-14T12:23:45;100563.59;;;26.82;86.63
51297;BME280;37380;45.186;9.792;2023-06-14T12:26:14;100520.97;;;27.00;82.48
51297;BME280;37380;45.186;9.792;2023-06-14T12:28:42;100549.44;;;27.76;81.42
51297;BME280;37380;45.186;9.792;2023-06-14T12:31:15;100546.13;;;28.37;78.02
51297;BME280;37380;45.186;9.792;2023-06-14T12:33:43;100533.47;;;27.49;83.46
51297;BME280;37380;45.186;9.792;2023-06-14T12:36:13;100508.84;;;26.63;82.54
51297;BME280;37380;45.186;9.792;2023-06-14T12:38:40;100483.66;;;26.42;80.49
51297;BME280;37380;45.186;9.792;2023-06-14T12:41:08;100524.63;;;26.72;80.67
51297;BME280;37380;45.186;9.792;2023-06-14T12:43:35;100523.88;;;26.94;84.55
51297;BME280;37380;45.186;9.792;2023-06-14T12:46:02;100538.78;;;27.01;83.42
51297;BME280;37380;45.186;9.792;2023-06-14T12:48:29;100491.25;;;26.81;87.64
51297;BME280;37380;45.186;9.792;2023-06-14T12:50:58;100513.38;;;27.11;83.58
51297;BME280;37380;45.186;9.792;2023-06-14T12:53:26;100453.25;;;27.18;80.51
51297;BME280;37380;45.186;9.792;2023-06-14T12:55:53;100481.88;;;27.41;88.96
51297;BME280;37380;45.186;9.792;2023-06-14T12:58:20;100499.22;;;26.57;85.76
51297;BME280;37380;45.186;9.792;2023-06-14T13:00:47;100466.44;;;26.99;79.89